METAR Data
IDs: Format: Raw Decoded Include TAF

Data at: 0458 UTC 26 Sep 2018

KMKL 260453Z AUTO 19006KT 10SM -RA BKN110 24/23 A3002 RMK AO2 RAE05B28 SLP160 P0001 T02390233
KMKL 260353Z AUTO 19007KT 7SM -RA SCT041 BKN055 OVC110 24/23 A3004 RMK AO2 RAB52 SLP168 P0001 T02440233
KMKL 260253Z AUTO 18006KT 10SM CLR 24/23 A3002 RMK AO2 SLP163 T02440233 53021
KMKL 260153Z AUTO 17004KT 10SM FEW050 24/23 A3000 RMK AO2 SLP155 T02440233
KMKL 260053Z AUTO 18004KT 10SM SCT047 25/23 A2998 RMK AO2 SLP147 T02500233
KMKL 252353Z AUTO 16004KT 10SM CLR 26/24 A2996 RMK AO2 SLP141 T02560239 10289 20256 55001
KMKL 252253Z 17005KT 10SM FEW032 27/24 A2995 RMK AO2 SLP138 T02720239
KMKL 252153Z 17005KT 10SM BKN042 BKN050 27/23 A2995 RMK AO2 SLP138 T02720233
KMKL 252053Z 19007KT 10SM SCT050 SCT060 28/23 A2996 RMK AO2 SLP141 T02830233 56020
KMKL 251953Z 17006KT 10SM SCT042 SCT050 28/24 A2998 RMK AO2 SLP145 T02780239
KMKL 251853Z 21008KT 10SM SCT027 SCT038 29/23 A3000 RMK AO2 SLP152 T02890233
KMKL 251753Z 20006KT 10SM SCT100 27/23 A3002 RMK AO2 SLP161 6//// T02720228 10272 20233 58000 $
KMKL 251653Z 20007G15KT 10SM FEW012 BKN050 BKN095 26/23 A3003 RMK AO2 LTG DSNT E AND SE RAE03 SLP164 T02610233 $
KMKL 251602Z 21005KT 8SM -RA FEW007 BKN036 OVC045 23/23 A3003 RMK AO2 P0000 T02330228 $
KMKL 251557Z 21005KT 2SM +RA BR SCT010 BKN018 OVC047 23/23 A3003 RMK AO2 VIS 3/4V5 P0000 T02330228 $
KMKL 251553Z 21007G15KT 3/4SM +RA BR FEW006 BKN014 OVC047 24/23 A3003 RMK AO2 VIS 1/2V2 1/2 RAB41 SLP165 T02390228 PNO $
KMKL 251545Z 25010KT 1 1/2SM +RA BR SCT008 BKN014 OVC023 24/23 A3003 RMK AO2 RAB41 T02440233 PNO $
KMKL 251453Z 18005KT 10SM BKN022 OVC032 24/23 A3002 RMK AO2 RAB1359E26 SLP163 6//// T02390228 53003 PNO $
KMKL 251438Z 15005KT 10SM FEW010 BKN026 OVC034 23/23 A3002 RMK AO2 RAB1359E26 T02330228 PNO $
KMKL 251422Z 16005KT 3SM -RA BR BKN010 BKN019 OVC030 23/23 A3002 RMK AO2 RAB1359 T02330228 PNO $
KMKL 251406Z 18007KT 1 3/4SM RA BR OVC012 24/23 A3002 RMK AO2 RAB1359 P0000 T02390228 $
KMKL 251353Z 18007KT 10SM OVC012 24/23 A3002 RMK AO2 SLP162 T02390228 $
KMKL 251253Z 16006KT 10SM BKN013 BKN019 OVC024 23/22 A3001 RMK AO2 SLP159 T02330222 $
KMKL 251229Z 17005KT 10SM BKN013 OVC020 23/22 A3002 RMK AO2 T02330222 $
KMKL 251153Z 16005KT 10SM OVC017 23/22 A3002 RMK AO2 SLP160 7//// T02330222 10233 20233 51007 $
KMKL 251053Z AUTO 17007KT 10SM FEW013 OVC022 23/22 A3001 RMK AO2 SLP156 T02330222 $
KMKL 251049Z AUTO 17006KT 10SM SCT013 BKN019 OVC024 23/22 A3000 RMK AO2 $
KMKL 250953Z AUTO 17006KT 10SM OVC010 23/22 A2999 RMK AO2 CIG 009V014 SLP151 T02330222 $
KMKL 250853Z AUTO 17008KT 10SM OVC011 23/22 A2999 RMK AO2 SLP151 T02330222 55000 $
KMKL 250808Z AUTO 17007KT 10SM OVC014 23/22 A2998 RMK AO2 T02330222 $
KMKL 250753Z AUTO 17007KT 130V190 10SM OVC016 23/22 A2998 RMK AO2 SLP149 T02330222 $
KMKL 250713Z AUTO 17008KT 10SM FEW010 OVC016 23/22 A2999 RMK AO2 T02330222 $
KMKL 250653Z AUTO 17009KT 10SM OVC014 23/22 A2999 RMK AO2 SLP151 T02330222 $
KMKL 250629Z AUTO 18008KT 10SM BKN010 OVC014 23/22 A2999 RMK AO2 CIG 007V011 T02330222 $
KMKL 250553Z AUTO 18008KT 10SM OVC008 23/22 A3000 RMK AO2 CIG 007V012 SLP153 T02330222 10250 20228 402720211 53007 $
KMKL 250513Z AUTO 00000KT 10SM BKN008 23/22 A2999 RMK AO2 T02280222 $
KMKL 250453Z AUTO 15003KT 10SM FEW008 SCT018 SCT095 23/22 A2998 RMK AO2 SLP149 T02280217 $
KMKL 250353Z AUTO 15004KT 10SM CLR 23/22 A2998 RMK AO2 SLP148 T02330217 $
KMKL 250253Z AUTO 15004KT 10SM FEW090 24/22 A2998 RMK AO2 SLP146 T02390222 53010 $
KMKL 250153Z AUTO 15003KT 10SM CLR 24/23 A2997 RMK AO2 SLP143 T02390228 $
KMKL 250053Z AUTO 13003KT 10SM SCT100 BKN110 24/23 A2995 RMK AO2 SLP137 T02440228 $
KMKL 242353Z AUTO 00000KT 10SM OVC095 25/23 A2995 RMK AO2 SLP136 6//// T02500233 10272 20233 53000 $
KMKL 242253Z 15004KT 10SM BKN110 26/23 A2994 RMK AO2 SLP134 T02560228 $
KMKL 242153Z 16004KT 10SM OVC110 26/23 A2994 RMK AO2 SLP135 T02610228 $
KMKL 242053Z 18005KT 10SM FEW025 BKN030 BKN090 27/23 A2995 RMK AO2 SLP136 6//// T02670228 56020 $
KMKL 242046Z 17005KT 10SM BKN024 BKN031 BKN085 27/23 A2994 RMK AO2 T02670228 $
KMKL 241953Z 20003KT 10SM BKN060 OVC075 26/23 A2996 RMK AO2 SLP139 T02560233 $
KMKL 241853Z 00000KT 10SM FEW016 BKN070 OVC120 24/23 A2998 RMK AO2 RAE22 SLP147 T02440233 $
KMKL 241840Z 00000KT 10SM FEW017 BKN070 OVC120 24/23 A2998 RMK AO2 RAE22 T02440233 $
KMKL 241816Z 19004KT 3SM -RA BR SCT014 BKN024 OVC036 24/23 A3000 RMK AO2 T02390228 PNO $
KMKL 241814Z VRB05KT 1 3/4SM -RA BR SCT014 BKN020 OVC036 23/22 A3000 RMK AO2 T02330222 PNO $
KMKL 241756Z 00000KT 1 1/2SM RA BR FEW012 BKN036 OVC045 23/23 A3000 RMK AO2 P0000 T02330228 $
KMKL 241753Z 16003KT 4SM -RA BR FEW010 BKN036 OVC045 23/23 A3000 RMK AO2 SLP156 P0001 6//// T02330228 10239 20217 58005 $
KMKL 241741Z 19006KT 5SM -RA BR FEW006 BKN037 OVC046 23/23 A3001 RMK AO2 P0001 T02330228 $
KMKL 241719Z 18003KT 5SM -RA BR BKN007 BKN012 OVC018 24/23 A3001 RMK AO2 CIG 006V010 P0000 T02390233 $
KMKL 241716Z 17004KT 5SM -RA BR BKN010 OVC018 24/23 A3001 RMK AO2 CIG 006V013 P0000 T02390233 $